Time;durP1;ratioP1;P1;durP2;ratioP2;P2;SDS_P1;SDS_P2;PMS_P1;PMS_P2;Temp;Humidity;BMP_temperature;BMP_pressure;BME280_temperature;BME280_humidity;BME280_pressure;Samples;Min_cycle;Max_cycle;Signal;HPM_P1;HPM_P2
2022/01/30 00:01:38;;;;;;;;;;;21.70;30.60;;;;;;489609;242;1119;-79
2022/01/30 00:03:39;;;;;;;;;;;21.60;30.60;;;;;;489667;242;1298;-78
2022/01/30 00:05:40;;;;;;;;;;;21.60;30.50;;;;;;489671;242;1048;-78
2022/01/30 00:07:42;;;;;;;;;;;21.50;30.40;;;;;;489666;242;2192;-79
2022/01/30 00:09:43;;;;;;;;;;;21.00;31.20;;;;;;489670;242;969;-78
2022/01/30 00:11:46;;;;;;;;;;;20.80;31.50;;;;;;489549;242;1166;-78
2022/01/30 00:13:46;;;;;;;;;;;20.60;31.90;;;;;;489622;242;1292;-78
2022/01/30 00:15:50;;;;;;;;;;;20.60;32.10;;;;;;489678;242;1105;-78
2022/01/30 00:17:54;;;;;;;;;;;20.50;32.30;;;;;;489716;242;1428;-78
2022/01/30 00:19:56;;;;;;;;;;;20.40;32.30;;;;;;489961;242;1452;-78
2022/01/30 00:22:09;;;;;;;;;;;20.70;32.10;;;;;;489924;242;1446;-78
2022/01/30 00:24:00;;;;;;;;;;;20.80;31.80;;;;;;490126;242;1393;-78
2022/01/30 00:25:57;;;;;;;;;;;21.40;31.10;;;;;;489931;242;1393;-78
2022/01/30 00:28:03;;;;;;;;;;;21.50;31.00;;;;;;489863;242;2211;-79
2022/01/30 00:29:58;;;;;;;;;;;21.50;31.00;;;;;;490009;242;1429;-78
2022/01/30 00:31:59;;;;;;;;;;;21.40;31.00;;;;;;489709;242;1119;-79
2022/01/30 00:34:01;;;;;;;;;;;21.60;30.80;;;;;;489721;242;969;-78
2022/01/30 00:36:02;;;;;;;;;;;21.70;30.50;;;;;;489783;242;1478;-78
2022/01/30 00:38:03;;;;;;;;;;;21.40;31.10;;;;;;489736;242;1051;-79
2022/01/30 00:40:05;;;;;;;;;;;21.60;30.90;;;;;;489743;242;949;-79
2022/01/30 00:42:06;;;;;;;;;;;21.90;30.60;;;;;;489674;242;1170;-78
2022/01/30 00:44:07;;;;;;;;;;;21.80;30.50;;;;;;489775;242;1104;-78
2022/01/30 00:46:09;;;;;;;;;;;21.50;31.00;;;;;;489778;242;1253;-79
2022/01/30 00:48:10;;;;;;;;;;;21.70;30.80;;;;;;489846;242;2201;-78
2022/01/30 00:50:11;;;;;;;;;;;21.60;30.90;;;;;;489782;242;888;-78
2022/01/30 00:52:16;;;;;;;;;;;21.80;30.80;;;;;;488773;243;1220;-79
2022/01/30 00:54:14;;;;;;;;;;;21.50;30.80;;;;;;489836;242;1573;-79
2022/01/30 00:56:15;;;;;;;;;;;21.60;31.10;;;;;;489692;242;1218;-78
2022/01/30 00:58:17;;;;;;;;;;;21.50;31.00;;;;;;489942;242;1091;-78
2022/01/30 01:00:18;;;;;;;;;;;21.50;31.20;;;;;;489766;242;953;-78
2022/01/30 01:02:19;;;;;;;;;;;21.20;31.40;;;;;;489723;242;1161;-79
2022/01/30 01:04:21;;;;;;;;;;;21.50;31.10;;;;;;489725;242;1115;-79
2022/01/30 01:06:22;;;;;;;;;;;21.70;31.10;;;;;;489674;242;1224;-79
2022/01/30 01:08:31;;;;;;;;;;;21.60;31.20;;;;;;489801;242;2181;-79
2022/01/30 01:10:34;;;;;;;;;;;21.60;31.10;;;;;;489911;242;1306;-79
2022/01/30 01:24:14;;;;;;;;;;;21.40;31.10;;;;;;489777;241;923;-79
2022/01/30 01:26:16;;;;;;;;;;;21.50;31.20;;;;;;489646;242;1084;-79
2022/01/30 01:28:17;;;;;;;;;;;21.50;31.40;;;;;;489691;242;2188;-78
2022/01/30 01:30:18;;;;;;;;;;;21.70;30.90;;;;;;489727;242;1030;-79
2022/01/30 01:32:20;;;;;;;;;;;21.50;31.30;;;;;;489789;242;1112;-79
2022/01/30 01:34:31;;;;;;;;;;;21.20;31.50;;;;;;489731;242;1151;-79
2022/01/30 01:36:27;;;;;;;;;;;21.20;31.80;;;;;;489711;242;1411;-79
2022/01/30 01:38:29;;;;;;;;;;;21.40;31.40;;;;;;489763;242;983;-79
2022/01/30 01:40:30;;;;;;;;;;;21.40;31.60;;;;;;489685;242;1223;-79
2022/01/30 01:42:34;;;;;;;;;;;21.10;32.00;;;;;;489740;242;1086;-79
2022/01/30 01:44:38;;;;;;;;;;;21.20;31.70;;;;;;489773;242;1398;-78
2022/01/30 01:46:35;;;;;;;;;;;21.20;31.60;;;;;;489769;242;1417;-78
2022/01/30 01:48:36;;;;;;;;;;;20.80;32.10;;;;;;489823;242;2182;-78
2022/01/30 01:50:40;;;;;;;;;;;20.80;32.30;;;;;;489728;242;1222;-79
2022/01/30 01:52:41;;;;;;;;;;;21.30;31.80;;;;;;489680;242;1137;-78
2022/01/30 01:54:42;;;;;;;;;;;20.90;32.20;;;;;;489761;242;1026;-78
2022/01/30 01:56:44;;;;;;;;;;;20.80;32.30;;;;;;489593;242;1132;-79
2022/01/30 01:58:45;;;;;;;;;;;20.80;32.40;;;;;;489750;242;1076;-78
2022/01/30 02:00:46;;;;;;;;;;;20.90;32.30;;;;;;489739;242;1268;-79
2022/01/30 02:02:48;;;;;;;;;;;20.90;32.40;;;;;;489832;242;1107;-78
2022/01/30 02:04:49;;;;;;;;;;;21.50;31.70;;;;;;489696;242;1189;-79
2022/01/30 02:06:58;;;;;;;;;;;21.00;32.00;;;;;;489727;242;1112;-79
2022/01/30 02:08:55;;;;;;;;;;;21.20;31.70;;;;;;489918;242;2201;-79
2022/01/30 02:10:58;;;;;;;;;;;20.90;32.20;;;;;;489667;242;1427;-79
2022/01/30 02:13:07;;;;;;;;;;;21.10;32.30;;;;;;489774;242;1401;-79
2022/01/30 02:15:11;;;;;;;;;;;20.80;32.40;;;;;;490012;242;1355;-79
2022/01/30 02:24:05;;;;;;;;;;;20.80;32.20;;;;;;489692;241;1045;-79
2022/01/30 02:26:04;;;;;;;;;;;21.00;32.00;;;;;;489759;242;1438;-78
2022/01/30 02:28:09;;;;;;;;;;;21.10;32.00;;;;;;489723;242;2126;-78
2022/01/30 02:30:05;;;;;;;;;;;21.10;32.10;;;;;;490055;242;1420;-79
2022/01/30 02:32:06;;;;;;;;;;;21.10;32.10;;;;;;489661;242;1115;-79
2022/01/30 02:34:07;;;;;;;;;;;21.30;32.00;;;;;;489705;242;1138;-79
2022/01/30 02:36:09;;;;;;;;;;;21.00;32.20;;;;;;489656;242;1219;-78
2022/01/30 02:38:10;;;;;;;;;;;21.30;32.00;;;;;;489684;242;1106;-79
2022/01/30 02:40:13;;;;;;;;;;;21.30;32.00;;;;;;489799;242;1190;-78
2022/01/30 02:42:17;;;;;;;;;;;21.00;32.10;;;;;;489557;242;1305;-79
2022/01/30 02:44:19;;;;;;;;;;;21.00;32.20;;;;;;489736;242;1340;-78
2022/01/30 02:46:22;;;;;;;;;;;21.00;32.20;;;;;;489721;242;1312;-79
2022/01/30 02:48:31;;;;;;;;;;;21.10;32.20;;;;;;489674;242;2201;-79
2022/01/30 02:50:35;;;;;;;;;;;21.10;32.30;;;;;;489872;242;1450;-78
2022/01/30 02:52:35;;;;;;;;;;;21.10;32.10;;;;;;489784;242;1323;-79
2022/01/30 02:54:35;;;;;;;;;;;21.10;32.20;;;;;;489819;242;1342;-78
2022/01/30 02:56:37;;;;;;;;;;;21.00;32.40;;;;;;489613;242;1233;-78
2022/01/30 02:58:38;;;;;;;;;;;21.00;32.30;;;;;;489693;242;1336;-78
2022/01/30 03:00:39;;;;;;;;;;;21.00;32.40;;;;;;489730;242;941;-78
2022/01/30 03:02:40;;;;;;;;;;;21.20;32.00;;;;;;489690;242;1104;-78
2022/01/30 03:04:42;;;;;;;;;;;21.50;31.80;;;;;;489728;242;1133;-78
2022/01/30 03:06:43;;;;;;;;;;;21.20;32.00;;;;;;489670;242;1202;-78
2022/01/30 03:08:44;;;;;;;;;;;21.10;32.20;;;;;;489733;242;2185;-78
2022/01/30 03:10:46;;;;;;;;;;;21.00;32.30;;;;;;489714;242;1311;-79
2022/01/30 03:12:47;;;;;;;;;;;21.20;31.90;;;;;;489678;242;1139;-78
2022/01/30 03:14:48;;;;;;;;;;;21.40;31.90;;;;;;489736;242;974;-78
2022/01/30 03:16:50;;;;;;;;;;;21.10;32.10;;;;;;489630;242;1172;-78
2022/01/30 03:18:51;;;;;;;;;;;21.30;31.90;;;;;;489706;242;1211;-78
2022/01/30 03:20:52;;;;;;;;;;;20.90;32.20;;;;;;489618;242;1136;-78
2022/01/30 03:22:54;;;;;;;;;;;20.80;32.50;;;;;;489749;242;1116;-78
2022/01/30 03:24:55;;;;;;;;;;;21.00;32.50;;;;;;489677;242;962;-79
2022/01/30 03:26:56;;;;;;;;;;;20.90;32.40;;;;;;489647;242;1197;-78
2022/01/30 03:29:04;;;;;;;;;;;21.20;32.10;;;;;;489694;242;2198;-78
2022/01/30 03:31:02;;;;;;;;;;;21.10;32.30;;;;;;489805;242;1442;-79
2022/01/30 03:33:00;;;;;;;;;;;20.90;32.40;;;;;;489750;242;1236;-79
2022/01/30 03:35:02;;;;;;;;;;;21.10;32.30;;;;;;489668;242;1166;-78
2022/01/30 03:37:03;;;;;;;;;;;21.30;32.00;;;;;;489647;242;1080;-78
2022/01/30 03:39:04;;;;;;;;;;;21.60;31.70;;;;;;489778;242;1064;-79
2022/01/30 03:41:06;;;;;;;;;;;21.60;31.80;;;;;;489612;242;1119;-79
2022/01/30 03:43:07;;;;;;;;;;;21.30;31.90;;;;;;489789;242;1209;-78
2022/01/30 03:45:08;;;;;;;;;;;21.10;31.90;;;;;;489726;242;1149;-78
2022/01/30 03:47:10;;;;;;;;;;;21.00;32.20;;;;;;489626;242;1076;-78
2022/01/30 03:49:11;;;;;;;;;;;21.00;32.40;;;;;;489684;242;2141;-79
2022/01/30 03:51:12;;;;;;;;;;;21.70;31.60;;;;;;489645;242;1215;-79
2022/01/30 03:53:14;;;;;;;;;;;21.40;31.60;;;;;;489790;242;1019;-79
2022/01/30 03:55:15;;;;;;;;;;;21.50;31.60;;;;;;489691;242;1054;-78
2022/01/30 03:57:16;;;;;;;;;;;21.30;32.00;;;;;;489626;242;1113;-79
2022/01/30 03:59:18;;;;;;;;;;;21.40;31.80;;;;;;489699;242;1136;-79
2022/01/30 04:01:19;;;;;;;;;;;21.20;31.90;;;;;;489724;242;1163;-79
2022/01/30 04:03:20;;;;;;;;;;;21.30;32.00;;;;;;489835;242;1078;-79
2022/01/30 04:05:22;;;;;;;;;;;21.60;31.70;;;;;;489702;242;1193;-79
2022/01/30 04:07:23;;;;;;;;;;;21.30;31.90;;;;;;489711;242;1128;-79
2022/01/30 04:09:24;;;;;;;;;;;21.50;31.50;;;;;;489717;242;2188;-79
2022/01/30 04:11:27;;;;;;;;;;;21.20;31.80;;;;;;489638;242;1122;-79
2022/01/30 04:13:27;;;;;;;;;;;21.40;31.90;;;;;;489720;242;1451;-79
2022/01/30 04:15:28;;;;;;;;;;;21.10;31.90;;;;;;489676;242;1187;-79
2022/01/30 04:17:30;;;;;;;;;;;21.40;31.70;;;;;;489744;242;1051;-79
2022/01/30 04:19:31;;;;;;;;;;;21.40;32.00;;;;;;489739;242;1138;-78
2022/01/30 04:21:32;;;;;;;;;;;21.30;31.90;;;;;;489696;242;1183;-79
2022/01/30 04:23:34;;;;;;;;;;;21.50;31.50;;;;;;489718;242;1058;-79
2022/01/30 04:25:35;;;;;;;;;;;21.20;32.10;;;;;;489729;242;1196;-78
2022/01/30 04:27:36;;;;;;;;;;;21.20;32.10;;;;;;489800;242;1097;-79
2022/01/30 04:29:38;;;;;;;;;;;21.30;31.80;;;;;;489745;242;2177;-79
2022/01/30 04:31:39;;;;;;;;;;;21.20;31.90;;;;;;489706;242;1171;-79
2022/01/30 04:33:40;;;;;;;;;;;21.20;32.10;;;;;;489786;242;956;-79
2022/01/30 04:35:42;;;;;;;;;;;21.30;31.80;;;;;;489664;242;1392;-79
2022/01/30 04:37:56;;;;;;;;;;;21.50;31.50;;;;;;489704;242;1110;-79
2022/01/30 04:40:18;;;;;;;;;;;21.40;31.80;;;;;;490076;242;1422;-79
2022/01/30 04:42:30;;;;;;;;;;;21.10;32.10;;;;;;489905;242;1977;-79
2022/01/30 04:54:10;;;;;;;;;;;21.40;31.50;;;;;;489696;241;953;-79
2022/01/30 04:58:14;;;;;;;;;;;21.00;32.20;;;;;;489900;241;991;-79
2022/01/30 05:00:08;;;;;;;;;;;21.10;31.90;;;;;;490006;242;1399;-79
2022/01/30 05:02:14;;;;;;;;;;;21.50;31.40;;;;;;489799;242;1453;-79
2022/01/30 05:04:22;;;;;;;;;;;21.20;31.90;;;;;;489864;242;1418;-79
2022/01/30 05:06:19;;;;;;;;;;;21.10;32.10;;;;;;489925;242;1418;-78
2022/01/30 05:08:18;;;;;;;;;;;21.20;32.30;;;;;;489731;242;1578;-79
2022/01/30 05:10:19;;;;;;;;;;;21.30;31.70;;;;;;489715;242;2152;-79
2022/01/30 05:12:21;;;;;;;;;;;21.60;31.70;;;;;;489733;242;1149;-79
2022/01/30 05:14:24;;;;;;;;;;;21.20;32.10;;;;;;489763;242;942;-78
2022/01/30 05:16:23;;;;;;;;;;;21.40;31.70;;;;;;489759;242;1441;-78
2022/01/30 05:18:24;;;;;;;;;;;21.60;31.80;;;;;;489739;242;1105;-78
2022/01/30 05:20:26;;;;;;;;;;;21.10;32.10;;;;;;489690;242;1266;-78
2022/01/30 05:22:27;;;;;;;;;;;21.20;32.20;;;;;;489771;242;1063;-79
2022/01/30 05:24:29;;;;;;;;;;;21.20;32.30;;;;;;489793;242;959;-79
2022/01/30 05:26:30;;;;;;;;;;;21.50;31.60;;;;;;489650;242;1265;-79
2022/01/30 05:28:31;;;;;;;;;;;21.40;32.20;;;;;;489728;242;989;-79
2022/01/30 05:30:32;;;;;;;;;;;21.40;32.00;;;;;;489717;242;2190;-79
2022/01/30 05:32:34;;;;;;;;;;;21.50;32.00;;;;;;489867;242;1032;-79
2022/01/30 05:34:35;;;;;;;;;;;21.50;32.00;;;;;;489738;242;943;-78
2022/01/30 05:36:36;;;;;;;;;;;21.20;32.20;;;;;;489742;242;1293;-79
2022/01/30 05:38:38;;;;;;;;;;;21.40;32.10;;;;;;489857;242;1064;-79
2022/01/30 05:40:39;;;;;;;;;;;21.50;32.10;;;;;;489683;242;1198;-79
2022/01/30 05:42:40;;;;;;;;;;;21.30;32.30;;;;;;489723;242;1148;-78
2022/01/30 05:44:47;;;;;;;;;;;21.20;32.30;;;;;;489902;242;1127;-78
2022/01/30 05:46:48;;;;;;;;;;;21.60;32.10;;;;;;489718;242;1514;-78
2022/01/30 05:48:45;;;;;;;;;;;21.40;32.20;;;;;;489848;242;1481;-79
2022/01/30 05:50:46;;;;;;;;;;;21.10;32.60;;;;;;489651;242;1506;-78
2022/01/30 05:52:47;;;;;;;;;;;21.40;31.90;;;;;;489721;242;1060;-79
2022/01/30 05:54:49;;;;;;;;;;;21.40;32.30;;;;;;489705;242;950;-79
2022/01/30 05:56:50;;;;;;;;;;;21.50;31.90;;;;;;489698;242;1226;-78
2022/01/30 05:58:51;;;;;;;;;;;21.50;32.10;;;;;;489846;242;1127;-78
2022/01/30 06:00:53;;;;;;;;;;;21.20;32.20;;;;;;489694;242;1120;-78
2022/01/30 06:02:54;;;;;;;;;;;21.40;32.10;;;;;;489818;242;1190;-79
2022/01/30 06:04:55;;;;;;;;;;;21.40;32.20;;;;;;489712;242;946;-79
2022/01/30 06:06:58;;;;;;;;;;;21.40;32.20;;;;;;489678;242;1145;-79
2022/01/30 06:09:11;;;;;;;;;;;21.30;32.10;;;;;;489710;242;2177;-78
2022/01/30 06:11:01;;;;;;;;;;;21.30;32.40;;;;;;490030;242;1392;-78
2022/01/30 06:13:02;;;;;;;;;;;21.10;32.70;;;;;;489706;242;1051;-78
2022/01/30 06:15:04;;;;;;;;;;;21.70;32.10;;;;;;489726;242;936;-78
2022/01/30 06:17:05;;;;;;;;;;;21.40;32.20;;;;;;489753;242;1166;-79
2022/01/30 06:19:06;;;;;;;;;;;21.70;32.00;;;;;;489814;242;1053;-78
2022/01/30 06:21:08;;;;;;;;;;;21.70;31.70;;;;;;489688;242;1216;-79
2022/01/30 06:23:09;;;;;;;;;;;21.80;31.90;;;;;;489712;242;945;-78
2022/01/30 06:25:10;;;;;;;;;;;21.40;32.10;;;;;;489697;242;954;-78
2022/01/30 06:27:12;;;;;;;;;;;21.30;32.20;;;;;;489712;242;1294;-78
2022/01/30 06:29:13;;;;;;;;;;;21.40;32.30;;;;;;489675;242;2193;-79
2022/01/30 06:31:15;;;;;;;;;;;21.40;32.50;;;;;;489736;242;1236;-78
2022/01/30 06:33:16;;;;;;;;;;;21.30;32.40;;;;;;489800;242;1296;-79
2022/01/30 06:35:17;;;;;;;;;;;21.50;32.40;;;;;;489677;242;955;-79
2022/01/30 06:37:19;;;;;;;;;;;21.20;32.40;;;;;;489765;242;1131;-78
2022/01/30 06:39:20;;;;;;;;;;;21.40;32.30;;;;;;489763;242;1114;-79
2022/01/30 06:41:21;;;;;;;;;;;21.50;32.20;;;;;;489662;242;1357;-79
2022/01/30 06:43:23;;;;;;;;;;;21.40;32.30;;;;;;489692;242;1085;-78
2022/01/30 06:45:24;;;;;;;;;;;21.70;32.00;;;;;;489708;242;1096;-78
2022/01/30 06:47:25;;;;;;;;;;;21.30;32.30;;;;;;489689;242;1149;-78
2022/01/30 06:49:27;;;;;;;;;;;21.30;32.10;;;;;;489713;242;2184;-79
2022/01/30 06:51:28;;;;;;;;;;;21.70;31.90;;;;;;489704;242;1157;-78
2022/01/30 06:53:29;;;;;;;;;;;21.50;32.00;;;;;;489811;242;1090;-78
2022/01/30 06:55:31;;;;;;;;;;;21.40;32.20;;;;;;489742;242;1087;-79
2022/01/30 06:57:32;;;;;;;;;;;21.40;32.20;;;;;;489713;242;1092;-78
2022/01/30 06:59:33;;;;;;;;;;;21.40;32.20;;;;;;489770;242;971;-79
2022/01/30 07:01:35;;;;;;;;;;;21.40;32.40;;;;;;489703;242;1193;-78
2022/01/30 07:03:36;;;;;;;;;;;21.30;32.20;;;;;;489723;242;1135;-78
2022/01/30 07:05:37;;;;;;;;;;;21.70;32.10;;;;;;489689;242;1289;-79
2022/01/30 07:07:39;;;;;;;;;;;21.60;32.30;;;;;;489660;242;1092;-78
2022/01/30 07:09:40;;;;;;;;;;;21.80;31.80;;;;;;489669;242;2125;-79
2022/01/30 07:11:41;;;;;;;;;;;22.00;31.70;;;;;;489689;242;1204;-79
2022/01/30 07:13:43;;;;;;;;;;;21.50;32.00;;;;;;489768;242;1020;-78
2022/01/30 07:15:44;;;;;;;;;;;21.60;32.00;;;;;;489796;242;1201;-78
2022/01/30 07:17:45;;;;;;;;;;;21.60;32.20;;;;;;489686;242;1118;-79
2022/01/30 07:19:47;;;;;;;;;;;21.40;32.20;;;;;;489695;242;978;-79
2022/01/30 07:21:48;;;;;;;;;;;21.40;32.50;;;;;;489648;242;1125;-78
2022/01/30 07:23:49;;;;;;;;;;;21.30;32.40;;;;;;489801;242;913;-78
2022/01/30 07:25:51;;;;;;;;;;;21.40;32.30;;;;;;489697;242;1187;-78
2022/01/30 07:27:52;;;;;;;;;;;21.30;32.60;;;;;;489655;242;1020;-78
2022/01/30 07:29:53;;;;;;;;;;;21.20;32.60;;;;;;489729;242;2189;-79
2022/01/30 07:31:55;;;;;;;;;;;21.30;32.70;;;;;;489760;242;1134;-78
2022/01/30 07:33:56;;;;;;;;;;;21.30;32.30;;;;;;489769;242;935;-78
2022/01/30 07:35:57;;;;;;;;;;;21.30;32.30;;;;;;489815;242;1127;-78
2022/01/30 07:37:59;;;;;;;;;;;21.40;32.40;;;;;;489740;242;1137;-79
2022/01/30 07:40:01;;;;;;;;;;;21.40;32.30;;;;;;489732;242;975;-78
2022/01/30 07:42:01;;;;;;;;;;;21.70;32.30;;;;;;489645;242;1469;-78
2022/01/30 07:44:03;;;;;;;;;;;21.30;32.40;;;;;;489688;242;975;-79
2022/01/30 07:46:04;;;;;;;;;;;21.50;32.50;;;;;;489680;242;1233;-79
2022/01/30 07:48:05;;;;;;;;;;;21.40;32.40;;;;;;489859;242;1062;-78
2022/01/30 07:50:07;;;;;;;;;;;21.60;32.30;;;;;;489725;242;2180;-79
2022/01/30 07:52:08;;;;;;;;;;;21.60;32.30;;;;;;489667;242;1427;-78
2022/01/30 07:54:09;;;;;;;;;;;21.30;32.20;;;;;;489741;242;1058;-78
2022/01/30 07:56:12;;;;;;;;;;;21.60;32.10;;;;;;489646;242;1035;-78
2022/01/30 07:58:12;;;;;;;;;;;21.60;32.30;;;;;;489697;242;1384;-79
2022/01/30 08:00:13;;;;;;;;;;;21.40;32.30;;;;;;489682;242;1031;-78
2022/01/30 08:02:15;;;;;;;;;;;21.20;32.60;;;;;;489732;242;1194;-79
2022/01/30 08:04:16;;;;;;;;;;;21.60;32.40;;;;;;489730;242;979;-79
2022/01/30 08:06:17;;;;;;;;;;;21.60;31.80;;;;;;489694;242;946;-78
2022/01/30 08:08:19;;;;;;;;;;;21.30;32.50;;;;;;489669;242;1109;-79
2022/01/30 08:10:20;;;;;;;;;;;21.20;32.50;;;;;;489610;242;2177;-79
2022/01/30 08:12:22;;;;;;;;;;;21.20;32.50;;;;;;489573;242;1237;-79
2022/01/30 08:14:23;;;;;;;;;;;21.30;32.20;;;;;;489631;242;1398;-78
2022/01/30 08:16:26;;;;;;;;;;;21.50;32.40;;;;;;489576;242;1004;-78
2022/01/30 08:18:25;;;;;;;;;;;21.40;32.30;;;;;;489638;242;1493;-78
2022/01/30 08:20:28;;;;;;;;;;;21.60;32.00;;;;;;489656;242;1072;-78
2022/01/30 08:22:30;;;;;;;;;;;21.20;32.40;;;;;;489694;242;1450;-78
2022/01/30 08:24:30;;;;;;;;;;;21.20;32.50;;;;;;489749;242;1474;-79
2022/01/30 08:26:31;;;;;;;;;;;21.50;32.40;;;;;;489644;242;1122;-78
2022/01/30 08:28:32;;;;;;;;;;;21.40;32.30;;;;;;489767;242;940;-78
2022/01/30 08:30:34;;;;;;;;;;;21.70;32.00;;;;;;489700;242;2174;-79
2022/01/30 08:32:35;;;;;;;;;;;21.20;32.20;;;;;;489783;242;1199;-78
2022/01/30 08:34:36;;;;;;;;;;;21.30;32.20;;;;;;489689;242;1005;-78
2022/01/30 08:36:38;;;;;;;;;;;21.00;32.50;;;;;;489647;242;1210;-78
2022/01/30 08:38:39;;;;;;;;;;;21.00;32.40;;;;;;489819;242;1082;-79
2022/01/30 08:40:40;;;;;;;;;;;21.00;32.50;;;;;;489703;242;1127;-78
2022/01/30 08:42:42;;;;;;;;;;;20.90;32.70;;;;;;489664;242;1150;-78
2022/01/30 08:44:43;;;;;;;;;;;21.10;32.30;;;;;;489737;242;954;-78
2022/01/30 08:46:44;;;;;;;;;;;21.20;32.30;;;;;;489666;242;1164;-78
2022/01/30 08:48:46;;;;;;;;;;;20.90;32.40;;;;;;489786;242;1074;-78
2022/01/30 08:50:47;;;;;;;;;;;21.20;32.10;;;;;;489628;242;2125;-78
2022/01/30 08:52:48;;;;;;;;;;;21.00;32.30;;;;;;489756;242;1115;-78
2022/01/30 08:54:50;;;;;;;;;;;21.20;32.00;;;;;;489676;242;1036;-78
2022/01/30 08:56:51;;;;;;;;;;;21.50;31.70;;;;;;489629;242;1110;-78
2022/01/30 08:58:52;;;;;;;;;;;21.80;31.60;;;;;;489683;242;1066;-78
2022/01/30 09:00:54;;;;;;;;;;;21.50;31.60;;;;;;489665;242;1226;-78
2022/01/30 09:02:59;;;;;;;;;;;21.10;32.10;;;;;;489731;242;1156;-78
2022/01/30 09:04:56;;;;;;;;;;;21.50;31.60;;;;;;489906;242;1406;-78
2022/01/30 09:06:58;;;;;;;;;;;21.60;31.50;;;;;;489677;242;1241;-78
2022/01/30 09:09:02;;;;;;;;;;;21.40;31.70;;;;;;489815;242;1134;-78
2022/01/30 09:11:01;;;;;;;;;;;21.30;31.50;;;;;;489820;242;2202;-78
2022/01/30 09:13:02;;;;;;;;;;;21.00;32.00;;;;;;489813;242;1164;-78
2022/01/30 09:15:03;;;;;;;;;;;21.20;31.80;;;;;;489712;242;911;-78
2022/01/30 09:17:11;;;;;;;;;;;21.10;32.00;;;;;;489634;242;1220;-78
2022/01/30 09:19:06;;;;;;;;;;;21.30;31.80;;;;;;489823;242;1308;-78
2022/01/30 09:21:08;;;;;;;;;;;21.10;32.00;;;;;;489644;242;1144;-78
2022/01/30 09:23:10;;;;;;;;;;;20.90;32.10;;;;;;489745;242;1183;-79
2022/01/30 09:25:10;;;;;;;;;;;21.60;31.50;;;;;;489716;242;1400;-78
2022/01/30 09:27:11;;;;;;;;;;;21.30;31.50;;;;;;489709;242;1116;-78
2022/01/30 09:29:13;;;;;;;;;;;21.30;31.80;;;;;;489718;242;959;-78
2022/01/30 09:31:14;;;;;;;;;;;21.30;31.80;;;;;;489706;242;2188;-78
2022/01/30 09:33:15;;;;;;;;;;;21.40;31.30;;;;;;489737;242;1099;-78
2022/01/30 09:35:17;;;;;;;;;;;21.60;31.60;;;;;;489677;242;1009;-78
2022/01/30 09:37:18;;;;;;;;;;;21.10;31.90;;;;;;489651;242;1174;-78
2022/01/30 09:39:19;;;;;;;;;;;21.30;31.70;;;;;;489747;242;1168;-78
2022/01/30 09:41:21;;;;;;;;;;;21.50;31.70;;;;;;489619;242;1208;-78
2022/01/30 09:43:22;;;;;;;;;;;21.20;31.80;;;;;;489673;242;988;-78
2022/01/30 09:45:23;;;;;;;;;;;21.50;31.50;;;;;;489761;242;946;-78
2022/01/30 09:47:25;;;;;;;;;;;21.50;31.60;;;;;;489703;242;1103;-78
2022/01/30 09:49:26;;;;;;;;;;;21.50;31.60;;;;;;489729;242;948;-79
2022/01/30 09:51:27;;;;;;;;;;;21.50;31.80;;;;;;489703;242;2192;-78
2022/01/30 09:53:29;;;;;;;;;;;21.20;31.80;;;;;;489671;242;1159;-78
2022/01/30 09:55:30;;;;;;;;;;;21.50;31.90;;;;;;489665;242;1231;-78
2022/01/30 09:57:31;;;;;;;;;;;21.40;31.80;;;;;;489643;242;1090;-79
2022/01/30 09:59:33;;;;;;;;;;;21.10;31.90;;;;;;489707;242;950;-78
2022/01/30 10:01:34;;;;;;;;;;;21.10;32.00;;;;;;489694;242;1197;-78
2022/01/30 10:03:35;;;;;;;;;;;21.20;31.70;;;;;;489749;242;1025;-78
2022/01/30 10:05:38;;;;;;;;;;;21.20;31.70;;;;;;489710;242;1237;-78
2022/01/30 10:07:38;;;;;;;;;;;21.30;31.60;;;;;;489770;242;1306;-78
2022/01/30 10:09:44;;;;;;;;;;;21.20;31.80;;;;;;489746;242;1146;-78
2022/01/30 10:11:46;;;;;;;;;;;21.40;31.40;;;;;;489761;242;2192;-78
2022/01/30 10:13:42;;;;;;;;;;;21.30;31.40;;;;;;489780;242;1437;-78
2022/01/30 10:15:43;;;;;;;;;;;21.30;31.20;;;;;;489645;242;1207;-78
2022/01/30 10:17:45;;;;;;;;;;;21.20;31.30;;;;;;489562;242;1053;-78
2022/01/30 10:19:46;;;;;;;;;;;21.60;31.00;;;;;;489631;242;1097;-78
2022/01/30 10:21:47;;;;;;;;;;;21.20;31.50;;;;;;489590;242;1343;-78
2022/01/30 10:23:49;;;;;;;;;;;21.20;31.30;;;;;;489694;242;1139;-78
2022/01/30 10:25:50;;;;;;;;;;;21.30;31.20;;;;;;489600;242;1125;-78
2022/01/30 10:27:51;;;;;;;;;;;21.50;30.80;;;;;;489673;242;1066;-78
2022/01/30 10:29:53;;;;;;;;;;;21.60;30.90;;;;;;489711;242;968;-79
2022/01/30 10:31:54;;;;;;;;;;;21.30;31.10;;;;;;489641;242;2189;-78
2022/01/30 10:33:57;;;;;;;;;;;21.70;30.80;;;;;;489767;242;1050;-78
2022/01/30 10:35:57;;;;;;;;;;;21.10;30.90;;;;;;489687;242;1509;-78
2022/01/30 10:37:59;;;;;;;;;;;21.30;30.80;;;;;;489638;242;986;-79
2022/01/30 10:40:01;;;;;;;;;;;21.30;30.70;;;;;;489776;242;1458;-78
2022/01/30 10:42:01;;;;;;;;;;;21.20;30.80;;;;;;489637;242;1476;-78
2022/01/30 10:44:02;;;;;;;;;;;21.40;30.50;;;;;;489746;242;1092;-78
2022/01/30 10:46:03;;;;;;;;;;;21.60;30.50;;;;;;489724;242;1137;-78
2022/01/30 10:48:05;;;;;;;;;;;21.10;30.60;;;;;;489647;242;1194;-78
2022/01/30 10:50:06;;;;;;;;;;;21.10;30.80;;;;;;489665;242;944;-78
2022/01/30 10:52:07;;;;;;;;;;;21.30;30.40;;;;;;489679;242;2185;-78
2022/01/30 10:54:09;;;;;;;;;;;21.40;30.40;;;;;;489668;242;1145;-78
2022/01/30 10:56:10;;;;;;;;;;;21.10;30.70;;;;;;489612;242;1150;-78
2022/01/30 10:58:12;;;;;;;;;;;21.30;30.40;;;;;;489613;242;1100;-78
2022/01/30 11:00:13;;;;;;;;;;;21.40;30.00;;;;;;489699;242;937;-78
2022/01/30 11:02:14;;;;;;;;;;;21.40;30.40;;;;;;489633;242;1206;-78
2022/01/30 11:04:15;;;;;;;;;;;21.10;30.50;;;;;;489652;242;1089;-79
2022/01/30 11:06:17;;;;;;;;;;;21.00;30.70;;;;;;489607;242;1143;-78
2022/01/30 11:08:18;;;;;;;;;;;21.20;30.30;;;;;;489598;242;1036;-78
2022/01/30 11:10:23;;;;;;;;;;;21.20;30.50;;;;;;489594;242;1186;-79
2022/01/30 11:12:30;;;;;;;;;;;21.20;30.40;;;;;;489647;242;2126;-78
2022/01/30 11:14:34;;;;;;;;;;;21.10;30.50;;;;;;490067;242;1425;-78
2022/01/30 11:18:44;;;;;;;;;;;21.10;30.30;;;;;;489737;241;943;-78
2022/01/30 11:20:45;;;;;;;;;;;21.30;30.40;;;;;;489690;242;1245;-78
2022/01/30 11:22:46;;;;;;;;;;;21.40;30.00;;;;;;489719;242;1131;-79
2022/01/30 11:24:48;;;;;;;;;;;21.50;29.90;;;;;;489727;242;1143;-79
2022/01/30 11:26:49;;;;;;;;;;;21.70;29.90;;;;;;489646;242;1214;-78
2022/01/30 11:28:50;;;;;;;;;;;21.30;30.00;;;;;;489658;242;1134;-78
2022/01/30 11:30:52;;;;;;;;;;;21.50;29.70;;;;;;489648;242;2200;-78
2022/01/30 11:32:53;;;;;;;;;;;21.90;29.60;;;;;;489663;242;1096;-79
2022/01/30 11:34:55;;;;;;;;;;;21.50;29.50;;;;;;489708;242;953;-78
2022/01/30 11:36:56;;;;;;;;;;;21.30;29.80;;;;;;489706;242;1170;-79
2022/01/30 11:38:57;;;;;;;;;;;21.70;29.80;;;;;;489685;242;1080;-78
2022/01/30 11:40:59;;;;;;;;;;;21.60;29.60;;;;;;489560;242;1166;-78
2022/01/30 11:43:00;;;;;;;;;;;21.70;29.60;;;;;;489637;242;1059;-78
2022/01/30 11:45:03;;;;;;;;;;;21.30;30.00;;;;;;489704;242;1077;-78
2022/01/30 11:47:03;;;;;;;;;;;21.40;29.80;;;;;;489813;242;1497;-79
2022/01/30 11:49:04;;;;;;;;;;;21.40;29.70;;;;;;489748;242;955;-78
2022/01/30 11:51:05;;;;;;;;;;;21.60;29.60;;;;;;489578;242;2185;-78
2022/01/30 11:53:07;;;;;;;;;;;21.40;29.90;;;;;;489751;242;970;-78
2022/01/30 11:55:08;;;;;;;;;;;21.60;29.80;;;;;;489675;242;1162;-79
2022/01/30 11:57:09;;;;;;;;;;;21.40;29.80;;;;;;489681;242;1148;-78
2022/01/30 11:59:11;;;;;;;;;;;21.10;30.00;;;;;;489680;242;1130;-78
2022/01/30 12:01:13;;;;;;;;;;;21.30;29.80;;;;;;489839;242;1168;-78
2022/01/30 12:03:14;;;;;;;;;;;21.50;29.80;;;;;;489729;242;1119;-79
2022/01/30 12:05:15;;;;;;;;;;;21.50;29.80;;;;;;489673;242;1054;-78
2022/01/30 12:07:17;;;;;;;;;;;21.20;29.70;;;;;;489678;242;1250;-78
2022/01/30 12:09:19;;;;;;;;;;;21.10;29.90;;;;;;489664;242;1117;-79
2022/01/30 12:11:19;;;;;;;;;;;21.50;29.80;;;;;;489733;242;2192;-79
2022/01/30 12:13:21;;;;;;;;;;;21.20;29.80;;;;;;489658;242;965;-78
2022/01/30 12:15:22;;;;;;;;;;;21.40;29.40;;;;;;489785;242;1092;-79
2022/01/30 12:17:23;;;;;;;;;;;21.40;29.60;;;;;;489802;242;1043;-78
2022/01/30 12:19:25;;;;;;;;;;;21.40;29.50;;;;;;489715;242;1030;-79
2022/01/30 12:21:26;;;;;;;;;;;21.30;29.50;;;;;;489675;242;1232;-79
2022/01/30 12:23:27;;;;;;;;;;;21.00;29.80;;;;;;489657;242;994;-78
2022/01/30 12:25:30;;;;;;;;;;;21.20;29.60;;;;;;489636;242;1140;-79
2022/01/30 12:27:31;;;;;;;;;;;21.30;29.50;;;;;;489759;242;1058;-78
2022/01/30 12:29:33;;;;;;;;;;;21.40;29.50;;;;;;489693;242;1071;-78
2022/01/30 12:31:34;;;;;;;;;;;21.40;29.50;;;;;;488385;242;2118;-78